createdAt,value
2022-08-19T00:00:37.680Z,0.00
2022-08-19T00:01:38.022Z,0.00
2022-08-19T00:02:37.647Z,0.00
2022-08-19T00:03:37.631Z,0.00
2022-08-19T00:04:37.863Z,0.00
2022-08-19T00:05:37.606Z,0.00
2022-08-19T00:06:37.592Z,0.00
2022-08-19T00:07:37.566Z,0.00
2022-08-19T00:08:37.554Z,0.00
2022-08-19T00:09:37.534Z,0.00
2022-08-19T00:10:37.516Z,0.00
2022-08-19T00:11:37.503Z,0.00
2022-08-19T00:12:37.488Z,0.00
2022-08-19T00:13:37.470Z,0.00
2022-08-19T00:14:37.454Z,0.00
2022-08-19T00:15:37.437Z,0.00
2022-08-19T00:16:37.423Z,0.00
2022-08-19T00:17:37.407Z,0.00
2022-08-19T00:18:37.390Z,0.00
2022-08-19T00:19:37.374Z,0.00
2022-08-19T00:20:37.356Z,0.00
2022-08-19T00:21:37.343Z,0.00
2022-08-19T00:22:37.325Z,0.00
2022-08-19T00:23:37.308Z,0.00
2022-08-19T00:24:37.294Z,0.00
2022-08-19T00:25:37.282Z,0.00
2022-08-19T00:26:37.267Z,0.00
2022-08-19T00:27:37.245Z,0.00
2022-08-19T00:28:37.229Z,0.00
2022-08-19T00:29:37.211Z,0.00
2022-08-19T00:30:37.198Z,0.00
2022-08-19T00:31:37.182Z,0.00
2022-08-19T00:32:37.163Z,0.00
2022-08-19T00:33:37.149Z,0.00
2022-08-19T00:34:37.132Z,0.00
2022-08-19T00:35:37.116Z,0.00
2022-08-19T00:36:37.099Z,0.00
2022-08-19T00:37:37.080Z,0.00
2022-08-19T00:38:37.540Z,0.00
2022-08-19T00:39:37.098Z,0.00
2022-08-19T00:40:37.035Z,0.00
2022-08-19T00:41:37.016Z,0.00
2022-08-19T00:42:37.002Z,0.00
2022-08-19T00:43:36.984Z,0.00
2022-08-19T00:44:36.970Z,0.00
2022-08-19T00:45:36.951Z,0.00
2022-08-19T00:46:36.939Z,0.00
2022-08-19T00:47:36.920Z,0.00
2022-08-19T00:48:36.905Z,0.00
2022-08-19T00:49:36.888Z,0.00
2022-08-19T00:50:36.871Z,0.00
2022-08-19T00:51:36.854Z,0.00
2022-08-19T00:52:36.840Z,0.00
2022-08-19T00:53:36.824Z,0.00
2022-08-19T00:54:36.807Z,0.00
2022-08-19T00:55:36.789Z,0.00
2022-08-19T00:56:36.781Z,0.00
2022-08-19T00:57:36.756Z,0.00
2022-08-19T00:58:36.742Z,0.00
2022-08-19T00:59:56.350Z,0.00
2022-08-19T01:00:36.708Z,0.00
2022-08-19T01:01:36.747Z,0.00
2022-08-19T01:02:36.678Z,0.00
2022-08-19T01:03:55.151Z,0.00
2022-08-19T01:04:36.642Z,0.00
2022-08-19T01:05:36.632Z,0.00
2022-08-19T01:06:36.617Z,0.00
2022-08-19T01:07:38.354Z,0.00
2022-08-19T01:08:36.587Z,0.00
2022-08-19T01:09:36.560Z,0.00
2022-08-19T01:10:36.995Z,0.00
2022-08-19T01:11:36.528Z,0.00
2022-08-19T01:12:36.512Z,0.00
2022-08-19T01:13:49.042Z,0.00
2022-08-19T01:14:36.481Z,0.00
2022-08-19T01:15:36.462Z,0.00
2022-08-19T01:16:36.448Z,0.00
2022-08-19T01:17:36.429Z,0.00
2022-08-19T01:18:36.414Z,0.00
2022-08-19T01:19:44.102Z,0.00
2022-08-19T01:20:36.381Z,0.00
2022-08-19T01:21:36.368Z,0.00
2022-08-19T01:22:36.347Z,0.00
2022-08-19T01:23:36.334Z,0.00
2022-08-19T01:24:36.314Z,0.00
2022-08-19T01:25:36.299Z,0.00
2022-08-19T01:26:36.282Z,0.00
2022-08-19T01:27:43.692Z,0.00
2022-08-19T01:28:40.297Z,0.00
2022-08-19T01:29:36.235Z,0.00
2022-08-19T01:30:36.217Z,0.00
2022-08-19T01:31:36.200Z,0.00
2022-08-19T01:32:36.189Z,0.00
2022-08-19T01:33:36.168Z,0.00
2022-08-19T01:34:36.152Z,0.00
2022-08-19T01:35:36.132Z,0.00
2022-08-19T01:36:36.119Z,0.00
2022-08-19T01:37:36.105Z,0.00
2022-08-19T01:38:36.087Z,0.00
2022-08-19T01:39:36.085Z,0.00
2022-08-19T01:40:36.054Z,0.00
2022-08-19T01:41:36.034Z,0.00
2022-08-19T01:42:36.022Z,0.00
2022-08-19T01:43:36.004Z,0.00
2022-08-19T01:44:35.989Z,0.00
2022-08-19T01:45:35.968Z,0.00
2022-08-19T01:46:35.954Z,0.00
2022-08-19T01:47:35.936Z,0.00
2022-08-19T01:48:35.921Z,0.00
2022-08-19T01:49:35.904Z,0.00
2022-08-19T01:50:35.889Z,0.00
2022-08-19T01:51:39.827Z,0.00
2022-08-19T01:52:35.855Z,0.00
2022-08-19T01:53:35.838Z,0.00
2022-08-19T01:54:35.821Z,0.00
2022-08-19T01:55:35.805Z,0.00
2022-08-19T01:56:35.791Z,0.00
2022-08-19T01:57:35.772Z,0.00
2022-08-19T01:58:35.754Z,0.00
2022-08-19T01:59:35.743Z,0.00
2022-08-19T02:00:35.723Z,0.00
2022-08-19T02:01:35.867Z,0.00
2022-08-19T02:02:35.694Z,0.00
2022-08-19T02:03:35.672Z,0.00
2022-08-19T02:04:35.657Z,0.00
2022-08-19T02:05:35.641Z,0.00
2022-08-19T02:06:35.626Z,0.00
2022-08-19T02:07:35.605Z,0.00
2022-08-19T02:08:35.592Z,0.00
2022-08-19T02:09:35.572Z,0.00
2022-08-19T02:10:35.559Z,0.00
2022-08-19T02:11:35.538Z,0.00
2022-08-19T02:12:35.527Z,0.00
2022-08-19T02:13:35.508Z,0.00
2022-08-19T02:14:35.491Z,0.00
2022-08-19T02:15:35.473Z,0.00
2022-08-19T02:16:35.460Z,0.00
2022-08-19T02:17:35.671Z,0.00
2022-08-19T02:18:36.569Z,0.00
2022-08-19T02:19:35.407Z,0.00
2022-08-19T02:20:35.392Z,0.00
2022-08-19T02:21:35.375Z,0.00
2022-08-19T02:22:35.358Z,0.00
2022-08-19T02:23:35.343Z,0.00
2022-08-19T02:24:35.326Z,0.00
2022-08-19T02:25:35.312Z,0.00
2022-08-19T02:26:35.293Z,0.00
2022-08-19T02:27:35.275Z,0.00
2022-08-19T02:28:35.259Z,0.00
2022-08-19T02:29:35.241Z,0.00
2022-08-19T02:30:35.226Z,0.00
2022-08-19T02:31:35.208Z,0.00
2022-08-19T02:32:35.192Z,0.00
2022-08-19T02:33:35.176Z,0.00
2022-08-19T02:34:35.158Z,0.00
2022-08-19T02:35:35.143Z,0.00
2022-08-19T02:36:35.124Z,0.00
2022-08-19T02:37:35.237Z,0.00
2022-08-19T02:38:35.093Z,0.00
2022-08-19T02:39:35.124Z,0.00
2022-08-19T02:40:35.061Z,0.00
2022-08-19T02:41:35.040Z,0.00
2022-08-19T02:42:35.026Z,0.00
2022-08-19T02:43:35.008Z,0.00
2022-08-19T02:44:34.994Z,0.00
2022-08-19T02:45:34.975Z,0.00
2022-08-19T02:46:34.959Z,0.00
2022-08-19T02:47:34.940Z,0.00
2022-08-19T02:48:34.928Z,0.00
2022-08-19T02:49:34.996Z,0.00
2022-08-19T02:50:34.894Z,0.00
2022-08-19T02:51:34.874Z,0.00
2022-08-19T02:52:34.857Z,0.00
2022-08-19T02:53:34.842Z,0.00
2022-08-19T02:54:34.825Z,0.00
2022-08-19T02:55:45.803Z,0.00
2022-08-19T02:56:34.801Z,0.00
2022-08-19T02:57:34.775Z,0.00
2022-08-19T02:58:34.764Z,0.00
2022-08-19T02:59:34.740Z,0.00
2022-08-19T03:00:34.728Z,0.00
2022-08-19T03:01:34.821Z,0.00
2022-08-19T03:02:34.693Z,0.00
2022-08-19T03:03:34.674Z,0.00
2022-08-19T03:04:34.662Z,0.00
2022-08-19T03:05:48.068Z,0.00
2022-08-19T03:06:34.626Z,0.00
2022-08-19T03:07:34.610Z,0.00
2022-08-19T03:08:34.593Z,0.00
2022-08-19T03:09:34.575Z,0.00
2022-08-19T03:10:34.560Z,0.00
2022-08-19T03:11:34.544Z,0.00
2022-08-19T03:12:34.526Z,0.00
2022-08-19T03:13:34.508Z,0.00
2022-08-19T03:14:34.492Z,0.00
2022-08-19T03:15:34.474Z,0.00
2022-08-19T03:16:34.459Z,0.00
2022-08-19T03:17:34.446Z,0.00
2022-08-19T03:18:34.425Z,0.00
2022-08-19T03:19:34.408Z,0.00
2022-08-19T03:20:34.393Z,0.00
2022-08-19T03:21:34.376Z,0.00
2022-08-19T03:22:34.357Z,0.00
2022-08-19T03:23:34.340Z,0.00
2022-08-19T03:24:34.325Z,0.00
2022-08-19T03:25:34.307Z,0.00
2022-08-19T03:26:34.294Z,0.00
2022-08-19T03:27:34.836Z,0.00
2022-08-19T03:28:34.257Z,0.00
2022-08-19T03:29:34.240Z,0.00
2022-08-19T03:30:34.229Z,0.00
2022-08-19T03:31:44.191Z,0.00
2022-08-19T03:32:34.190Z,0.00
2022-08-19T03:33:34.171Z,0.00
2022-08-19T03:34:34.157Z,0.00
2022-08-19T03:35:34.141Z,0.00
2022-08-19T03:36:34.125Z,0.00
2022-08-19T03:37:34.105Z,0.00
2022-08-19T03:38:34.088Z,0.00
2022-08-19T03:39:34.089Z,0.00
2022-08-19T03:40:34.057Z,0.00
2022-08-19T03:41:34.187Z,0.00
2022-08-19T03:42:48.981Z,0.00
2022-08-19T03:43:34.006Z,0.00
2022-08-19T03:44:33.986Z,0.00
2022-08-19T03:45:33.970Z,0.00
2022-08-19T03:46:33.956Z,0.00
2022-08-19T03:47:33.938Z,0.00
2022-08-19T03:48:33.919Z,0.00
2022-08-19T03:49:33.906Z,0.00
2022-08-19T03:50:33.885Z,0.00
2022-08-19T03:51:33.871Z,0.00
2022-08-19T03:52:33.852Z,0.00
2022-08-19T03:53:33.837Z,0.00
2022-08-19T03:54:33.819Z,0.00
2022-08-19T03:55:33.805Z,0.00
2022-08-19T03:56:33.784Z,0.00
2022-08-19T03:57:33.770Z,0.00
2022-08-19T03:58:33.750Z,0.00
2022-08-19T03:59:33.737Z,0.00
2022-08-19T04:00:33.717Z,0.00
2022-08-19T04:01:35.428Z,0.00
2022-08-19T04:02:33.687Z,0.00
2022-08-19T04:03:33.666Z,0.00
2022-08-19T04:04:33.647Z,0.00
2022-08-19T04:05:33.635Z,0.00
2022-08-19T04:06:33.618Z,4.00
2022-08-19T04:07:33.599Z,4.00
2022-08-19T04:08:33.581Z,4.00
2022-08-19T04:09:33.567Z,4.00
2022-08-19T04:10:33.548Z,0.00
2022-08-19T04:11:42.981Z,4.00
2022-08-19T04:12:33.514Z,4.00
2022-08-19T04:13:33.497Z,4.00
2022-08-19T04:14:33.485Z,4.00
2022-08-19T04:15:33.466Z,8.00
2022-08-19T04:16:35.259Z,4.00
2022-08-19T04:17:33.433Z,4.00
2022-08-19T04:18:36.391Z,8.00
2022-08-19T04:19:33.399Z,8.00
2022-08-19T04:20:33.379Z,4.00
2022-08-19T04:21:33.364Z,8.00
2022-08-19T04:22:33.345Z,12.00
2022-08-19T04:23:33.330Z,8.00
2022-08-19T04:24:33.312Z,12.00
2022-08-19T04:25:33.317Z,12.00
2022-08-19T04:26:33.279Z,16.00
2022-08-19T04:27:33.291Z,12.00
2022-08-19T04:28:33.246Z,12.00
2022-08-19T04:29:33.252Z,16.00
2022-08-19T04:30:33.256Z,16.00
2022-08-19T04:31:33.193Z,16.00
2022-08-19T04:32:33.174Z,16.00
2022-08-19T04:33:33.162Z,16.00
2022-08-19T04:34:33.143Z,24.00
2022-08-19T04:35:33.128Z,24.00
2022-08-19T04:36:33.107Z,24.00
2022-08-19T04:37:35.219Z,28.00
2022-08-19T04:38:33.177Z,28.00
2022-08-19T04:39:33.093Z,32.00
2022-08-19T04:40:33.065Z,28.00
2022-08-19T04:41:33.024Z,32.00
2022-08-19T04:42:33.008Z,32.00
2022-08-19T04:43:32.990Z,36.00
2022-08-19T04:44:33.274Z,40.00
2022-08-19T04:45:43.694Z,40.00
2022-08-19T04:46:40.419Z,44.00
2022-08-19T04:47:49.103Z,48.00
2022-08-19T04:48:32.947Z,52.00
2022-08-19T04:49:32.919Z,52.00
2022-08-19T04:50:32.871Z,56.00
2022-08-19T04:51:32.857Z,52.00
2022-08-19T04:52:32.838Z,60.00
2022-08-19T04:53:35.517Z,56.00
2022-08-19T04:54:38.658Z,60.00
2022-08-19T04:55:37.867Z,56.00
2022-08-19T04:56:32.837Z,56.00
2022-08-19T04:57:32.755Z,60.00
2022-08-19T04:58:32.736Z,64.00
2022-08-19T04:59:32.725Z,68.00
2022-08-19T05:00:32.700Z,72.00
2022-08-19T05:01:32.715Z,76.00
2022-08-19T05:02:32.665Z,84.00
2022-08-19T05:03:32.651Z,84.00
2022-08-19T05:04:33.087Z,88.00
2022-08-19T05:05:32.645Z,88.00
2022-08-19T05:06:32.597Z,92.00
2022-08-19T05:07:32.583Z,96.00
2022-08-19T05:08:32.568Z,96.00
2022-08-19T05:09:55.373Z,100.00
2022-08-19T05:10:32.528Z,108.00
2022-08-19T05:11:32.512Z,116.00
2022-08-19T05:12:32.968Z,124.00
2022-08-19T05:13:32.497Z,124.00
2022-08-19T05:14:32.461Z,132.00
2022-08-19T05:15:32.469Z,136.00
2022-08-19T05:16:32.429Z,144.00
2022-08-19T05:17:37.764Z,144.00
2022-08-19T05:18:32.394Z,152.00
2022-08-19T05:19:33.560Z,160.00
2022-08-19T05:20:32.360Z,152.00
2022-08-19T05:21:32.345Z,168.00
2022-08-19T05:22:32.325Z,184.00
2022-08-19T05:23:32.310Z,172.00
2022-08-19T05:24:32.292Z,192.00
2022-08-19T05:25:32.275Z,200.00
2022-08-19T05:26:32.256Z,172.00
2022-08-19T05:27:32.246Z,184.00
2022-08-19T05:28:32.361Z,176.00
2022-08-19T05:29:36.132Z,172.00
2022-08-19T05:30:46.544Z,176.00
2022-08-19T05:31:32.173Z,192.00
2022-08-19T05:32:32.159Z,188.00
2022-08-19T05:33:32.142Z,192.00
2022-08-19T05:34:32.123Z,208.00
2022-08-19T05:35:34.672Z,208.00
2022-08-19T05:36:32.087Z,216.00
2022-08-19T05:37:32.074Z,276.00
2022-08-19T05:38:32.055Z,272.00
2022-08-19T05:39:32.087Z,308.00
2022-08-19T05:40:32.020Z,284.00
2022-08-19T05:41:32.006Z,272.00
2022-08-19T05:42:31.992Z,280.00
2022-08-19T05:43:31.975Z,284.00
2022-08-19T05:44:31.952Z,284.00
2022-08-19T05:45:31.937Z,280.00
2022-08-19T05:46:31.918Z,284.00
2022-08-19T05:47:31.904Z,272.00
2022-08-19T05:48:31.884Z,272.00
2022-08-19T05:49:31.871Z,264.00
2022-08-19T05:50:31.853Z,264.00
2022-08-19T05:51:31.836Z,256.00
2022-08-19T05:52:31.858Z,256.00
2022-08-19T05:53:31.801Z,256.00
2022-08-19T05:54:31.785Z,260.00
2022-08-19T05:55:31.801Z,260.00
2022-08-19T05:56:31.751Z,260.00
2022-08-19T05:57:31.736Z,264.00
2022-08-19T05:58:31.718Z,264.00
2022-08-19T05:59:31.700Z,268.00
2022-08-19T06:00:31.685Z,268.00
2022-08-19T06:01:31.673Z,268.00
2022-08-19T06:02:32.005Z,268.00
2022-08-19T06:03:31.635Z,276.00
2022-08-19T06:04:31.620Z,276.00
2022-08-19T06:05:31.602Z,280.00
2022-08-19T06:06:31.581Z,276.00
2022-08-19T06:07:31.661Z,272.00
2022-08-19T06:08:34.574Z,268.00
2022-08-19T06:09:31.545Z,260.00
2022-08-19T06:10:31.522Z,252.00
2022-08-19T06:11:31.501Z,256.00
2022-08-19T06:12:31.491Z,260.00
2022-08-19T06:13:33.282Z,256.00
2022-08-19T06:14:31.451Z,252.00
2022-08-19T06:15:31.433Z,252.00
2022-08-19T06:16:31.415Z,252.00
2022-08-19T06:17:32.056Z,256.00
2022-08-19T06:18:31.383Z,252.00
2022-08-19T06:19:31.408Z,252.00
2022-08-19T06:20:54.519Z,252.00
2022-08-19T06:21:31.424Z,252.00
2022-08-19T06:22:31.319Z,256.00
2022-08-19T06:23:31.300Z,260.00
2022-08-19T06:24:31.283Z,264.00
2022-08-19T06:25:31.296Z,268.00
2022-08-19T06:26:31.251Z,268.00
2022-08-19T06:27:31.292Z,264.00
2022-08-19T06:28:31.217Z,264.00
2022-08-19T06:29:31.282Z,260.00
2022-08-19T06:30:31.184Z,264.00
2022-08-19T06:31:31.168Z,264.00
2022-08-19T06:32:31.185Z,264.00
2022-08-19T06:33:31.137Z,260.00
2022-08-19T06:34:31.140Z,264.00
2022-08-19T06:35:31.178Z,264.00
2022-08-19T06:36:31.088Z,264.00
2022-08-19T06:37:31.071Z,264.00
2022-08-19T06:38:31.053Z,268.00
2022-08-19T06:39:31.103Z,268.00
2022-08-19T06:40:31.045Z,268.00
2022-08-19T06:41:31.150Z,264.00
2022-08-19T06:42:30.985Z,264.00
2022-08-19T06:43:30.971Z,268.00
2022-08-19T06:44:31.834Z,264.00
2022-08-19T06:45:35.439Z,264.00
2022-08-19T06:46:30.930Z,264.00
2022-08-19T06:47:30.905Z,268.00
2022-08-19T06:48:30.889Z,264.00
2022-08-19T06:49:30.873Z,264.00
2022-08-19T06:50:30.865Z,264.00
2022-08-19T06:52:30.824Z,272.00
2022-08-19T06:53:30.809Z,272.00
2022-08-19T06:54:31.077Z,272.00
2022-08-19T06:55:30.776Z,268.00
2022-08-19T06:56:30.758Z,268.00
2022-08-19T06:57:30.742Z,272.00
2022-08-19T06:58:30.723Z,272.00
2022-08-19T06:59:30.710Z,276.00
2022-08-19T07:01:30.678Z,276.00
2022-08-19T07:02:30.659Z,276.00
2022-08-19T07:03:30.643Z,280.00
2022-08-19T07:04:30.755Z,280.00
2022-08-19T07:05:30.611Z,288.00
2022-08-19T07:06:43.926Z,288.00
2022-08-19T07:07:30.578Z,288.00
2022-08-19T07:08:30.665Z,292.00
2022-08-19T07:09:30.598Z,288.00
2022-08-19T07:10:30.529Z,288.00
2022-08-19T07:11:30.589Z,292.00
2022-08-19T07:12:30.740Z,288.00
2022-08-19T07:13:30.482Z,272.00
2022-08-19T07:14:30.502Z,292.00
2022-08-19T07:15:30.450Z,300.00
2022-08-19T07:16:30.438Z,300.00
2022-08-19T07:17:30.433Z,300.00
2022-08-19T07:18:30.399Z,300.00
2022-08-19T07:19:30.384Z,300.00
2022-08-19T07:20:30.368Z,300.00
2022-08-19T07:21:30.353Z,300.00
2022-08-19T07:22:30.335Z,308.00
2022-08-19T07:23:30.345Z,308.00
2022-08-19T07:24:30.348Z,308.00
2022-08-19T07:25:32.121Z,312.00
2022-08-19T07:26:30.356Z,312.00
2022-08-19T07:27:30.256Z,312.00
2022-08-19T07:28:30.239Z,316.00
2022-08-19T07:29:30.223Z,320.00
2022-08-19T07:30:30.205Z,320.00
2022-08-19T07:31:31.130Z,324.00
2022-08-19T07:32:30.176Z,328.00
2022-08-19T07:33:30.356Z,328.00
2022-08-19T07:34:30.158Z,336.00
2022-08-19T07:35:30.125Z,340.00
2022-08-19T07:36:30.107Z,340.00
2022-08-19T07:37:33.031Z,340.00
2022-08-19T07:38:30.077Z,344.00
2022-08-19T07:39:30.159Z,344.00
2022-08-19T07:40:30.047Z,340.00
2022-08-19T07:41:30.032Z,352.00
2022-08-19T07:42:30.022Z,356.00
2022-08-19T07:43:31.442Z,356.00
2022-08-19T07:44:30.025Z,360.00
2022-08-19T07:45:29.967Z,356.00
2022-08-19T07:46:29.951Z,352.00
2022-08-19T07:47:49.931Z,352.00
2022-08-19T07:48:29.917Z,356.00
2022-08-19T07:49:29.906Z,356.00
2022-08-19T07:50:29.969Z,364.00
2022-08-19T07:51:36.852Z,380.00
2022-08-19T07:52:29.850Z,460.00
2022-08-19T07:53:29.839Z,564.00
2022-08-19T07:54:29.820Z,372.00
2022-08-19T07:55:42.652Z,376.00
2022-08-19T07:56:29.788Z,404.00
2022-08-19T07:57:29.776Z,360.00
2022-08-19T07:58:29.757Z,340.00
2022-08-19T07:59:29.740Z,376.00
2022-08-19T08:00:29.726Z,360.00
2022-08-19T08:01:29.776Z,368.00
2022-08-19T08:02:29.695Z,408.00
2022-08-19T08:03:29.676Z,344.00
2022-08-19T08:04:29.665Z,356.00
2022-08-19T08:05:29.644Z,356.00
2022-08-19T08:06:29.631Z,356.00
2022-08-19T08:07:31.581Z,348.00
2022-08-19T08:08:29.668Z,332.00
2022-08-19T08:09:29.583Z,340.00
2022-08-19T08:10:29.569Z,332.00
2022-08-19T08:11:29.628Z,320.00
2022-08-19T08:12:35.458Z,320.00
2022-08-19T08:13:29.521Z,356.00
2022-08-19T08:14:35.150Z,348.00
2022-08-19T08:15:29.487Z,372.00
2022-08-19T08:16:29.478Z,408.00
2022-08-19T08:17:31.018Z,428.00
2022-08-19T08:18:30.496Z,440.00
2022-08-19T08:19:29.422Z,440.00
2022-08-19T08:20:29.406Z,440.00
2022-08-19T08:21:29.431Z,456.00
2022-08-19T08:22:29.375Z,472.00
2022-08-19T08:23:29.460Z,492.00
2022-08-19T08:24:29.383Z,496.00
2022-08-19T08:25:29.332Z,496.00
2022-08-19T08:26:29.313Z,480.00
2022-08-19T08:27:29.296Z,484.00
2022-08-19T08:28:29.990Z,528.00
2022-08-19T08:29:35.032Z,588.00
2022-08-19T08:30:31.217Z,528.00
2022-08-19T08:31:29.231Z,540.00
2022-08-19T08:32:29.233Z,552.00
2022-08-19T08:33:33.669Z,572.00
2022-08-19T08:34:29.187Z,604.00
2022-08-19T08:35:29.168Z,692.00
2022-08-19T08:36:29.190Z,708.00
2022-08-19T08:37:29.138Z,684.00
2022-08-19T08:38:29.147Z,584.00
2022-08-19T08:39:29.105Z,516.00
2022-08-19T08:40:29.093Z,568.00
2022-08-19T08:41:29.082Z,700.00
2022-08-19T08:42:29.128Z,676.00
2022-08-19T08:43:32.290Z,1000.00
2022-08-19T08:44:29.030Z,608.00
2022-08-19T08:45:29.014Z,492.00
2022-08-19T08:46:31.034Z,588.00
2022-08-19T08:47:28.982Z,532.00
2022-08-19T08:48:28.968Z,588.00
2022-08-19T08:49:28.951Z,492.00
2022-08-19T08:50:28.940Z,492.00
2022-08-19T08:51:31.953Z,684.00
2022-08-19T08:52:31.983Z,816.00
2022-08-19T08:53:31.743Z,796.00
2022-08-19T08:54:28.873Z,920.00
2022-08-19T08:55:28.860Z,828.00
2022-08-19T08:57:28.841Z,768.00
2022-08-19T08:58:28.817Z,820.00
2022-08-19T08:59:28.794Z,996.00
2022-08-19T09:00:28.783Z,876.00
2022-08-19T09:01:30.349Z,936.00
2022-08-19T09:02:28.751Z,936.00
2022-08-19T09:03:29.388Z,964.00
2022-08-19T09:04:28.720Z,816.00
2022-08-19T09:05:28.734Z,900.00
2022-08-19T09:06:28.689Z,864.00
2022-08-19T09:07:35.936Z,860.00
2022-08-19T09:08:28.659Z,844.00
2022-08-19T09:09:28.939Z,708.00
2022-08-19T09:10:28.625Z,904.00
2022-08-19T09:11:42.748Z,680.00
2022-08-19T09:12:28.595Z,696.00
2022-08-19T09:13:28.578Z,740.00
2022-08-19T09:14:49.339Z,960.00
2022-08-19T09:15:33.720Z,960.00
2022-08-19T09:16:28.624Z,940.00
2022-08-19T09:17:28.518Z,844.00
2022-08-19T09:18:29.749Z,856.00
2022-08-19T09:19:29.424Z,916.00
2022-08-19T09:20:28.473Z,872.00
2022-08-19T09:21:30.565Z,940.00
2022-08-19T09:22:28.440Z,1060.00
2022-08-19T09:23:28.422Z,1028.00
2022-08-19T09:24:31.167Z,896.00
2022-08-19T09:25:29.591Z,880.00
2022-08-19T09:26:29.800Z,808.00
2022-08-19T09:27:41.868Z,864.00
2022-08-19T09:28:28.348Z,844.00
2022-08-19T09:29:28.333Z,796.00
2022-08-19T09:30:28.315Z,732.00
2022-08-19T09:31:28.300Z,792.00
2022-08-19T09:32:28.316Z,820.00
2022-08-19T09:33:28.274Z,856.00
2022-08-19T09:34:28.256Z,888.00
2022-08-19T09:35:28.379Z,960.00
2022-08-19T09:36:31.136Z,1004.00
2022-08-19T09:37:28.209Z,1012.00
2022-08-19T09:38:28.195Z,1036.00
2022-08-19T09:39:35.906Z,1056.00
2022-08-19T09:40:30.129Z,1060.00
2022-08-19T09:41:28.765Z,1112.00
2022-08-19T09:42:30.390Z,1080.00
2022-08-19T09:43:33.113Z,932.00
2022-08-19T09:44:28.103Z,1104.00
2022-08-19T09:45:28.090Z,1100.00
2022-08-19T09:46:28.073Z,1104.00
2022-08-19T09:47:28.056Z,1024.00
2022-08-19T09:48:28.077Z,1128.00
2022-08-19T09:49:28.058Z,1180.00
2022-08-19T09:50:28.013Z,1212.00
2022-08-19T09:51:27.994Z,1284.00
2022-08-19T09:52:32.593Z,1360.00
2022-08-19T09:53:27.966Z,1412.00
2022-08-19T09:54:27.952Z,1472.00
2022-08-19T09:55:32.103Z,1388.00
2022-08-19T09:56:27.922Z,1256.00
2022-08-19T09:57:27.909Z,1228.00
2022-08-19T09:58:27.892Z,1240.00
2022-08-19T09:59:27.876Z,1228.00
2022-08-19T10:00:27.871Z,1264.00
2022-08-19T10:01:27.906Z,1316.00
2022-08-19T10:02:29.038Z,1352.00
2022-08-19T10:03:30.197Z,1440.00
2022-08-19T10:04:27.800Z,1476.00
2022-08-19T10:05:27.787Z,1480.00
2022-08-19T10:06:40.630Z,1464.00
2022-08-19T10:07:36.018Z,1468.00
2022-08-19T10:08:27.747Z,1484.00
2022-08-19T10:09:33.872Z,1188.00
2022-08-19T10:10:27.711Z,1600.00
2022-08-19T10:11:36.559Z,1648.00
2022-08-19T10:12:27.683Z,1180.00
2022-08-19T10:13:27.667Z,1128.00
2022-08-19T10:14:27.655Z,1196.00
2022-08-19T10:15:29.174Z,1524.00
2022-08-19T10:16:30.538Z,1384.00
2022-08-19T10:17:27.626Z,768.00
2022-08-19T10:18:27.600Z,712.00
2022-08-19T10:19:27.582Z,764.00
2022-08-19T10:20:27.567Z,768.00
2022-08-19T10:21:27.554Z,772.00
2022-08-19T10:22:27.538Z,788.00
2022-08-19T10:23:27.523Z,804.00
2022-08-19T10:24:27.513Z,864.00
2022-08-19T10:25:27.499Z,1204.00
2022-08-19T10:26:27.485Z,1348.00
2022-08-19T10:27:27.467Z,1380.00
2022-08-19T10:28:27.455Z,1124.00
2022-08-19T10:29:32.072Z,1160.00
2022-08-19T10:30:27.428Z,1140.00
2022-08-19T10:32:00.594Z,1352.00
2022-08-19T10:32:30.316Z,1456.00
2022-08-19T10:33:38.928Z,1528.00
2022-08-19T10:34:28.410Z,1580.00
2022-08-19T10:35:27.374Z,1632.00
2022-08-19T10:36:27.336Z,1748.00
2022-08-19T10:37:31.207Z,1628.00
2022-08-19T10:38:31.771Z,1784.00
2022-08-19T10:39:30.773Z,1636.00
2022-08-19T10:40:27.353Z,1624.00
2022-08-19T10:41:27.264Z,1852.00
2022-08-19T10:42:27.251Z,1692.00
2022-08-19T10:43:27.237Z,1412.00
2022-08-19T10:44:32.555Z,1124.00
2022-08-19T10:45:28.157Z,1080.00
2022-08-19T10:46:27.196Z,928.00
2022-08-19T10:47:31.575Z,1088.00
2022-08-19T10:48:27.231Z,1188.00
2022-08-19T10:49:28.133Z,1208.00
2022-08-19T10:50:28.718Z,1216.00
2022-08-19T10:51:27.122Z,1172.00
2022-08-19T10:52:32.404Z,1220.00
2022-08-19T10:53:27.093Z,1244.00
2022-08-19T10:54:33.364Z,1268.00
2022-08-19T10:55:29.376Z,1264.00
2022-08-19T10:56:27.057Z,1264.00
2022-08-19T10:57:33.411Z,1248.00
2022-08-19T10:58:27.026Z,1172.00
2022-08-19T10:59:27.046Z,1104.00
2022-08-19T11:00:26.998Z,948.00
2022-08-19T11:01:27.025Z,780.00
2022-08-19T11:02:26.968Z,768.00
2022-08-19T11:03:26.953Z,788.00
2022-08-19T11:04:29.469Z,852.00
2022-08-19T11:05:26.930Z,896.00
2022-08-19T11:06:26.913Z,940.00
2022-08-19T11:07:26.897Z,988.00
2022-08-19T11:08:26.886Z,1148.00
2022-08-19T11:09:33.525Z,1088.00
2022-08-19T11:10:26.857Z,1012.00
2022-08-19T11:11:26.842Z,940.00
2022-08-19T11:12:26.829Z,940.00
2022-08-19T11:13:26.815Z,1112.00
2022-08-19T11:14:26.800Z,1216.00
2022-08-19T11:15:27.118Z,1320.00
2022-08-19T11:16:26.776Z,1340.00
2022-08-19T11:17:26.757Z,1384.00
2022-08-19T11:18:26.749Z,1400.00
2022-08-19T11:19:26.729Z,1380.00
2022-08-19T11:20:26.717Z,1240.00
2022-08-19T11:21:26.702Z,1252.00
2022-08-19T11:22:30.052Z,1148.00
2022-08-19T11:23:26.677Z,1024.00
2022-08-19T11:24:26.660Z,968.00
2022-08-19T11:25:26.647Z,932.00
2022-08-19T11:26:26.634Z,908.00
2022-08-19T11:27:26.620Z,904.00
2022-08-19T11:28:26.605Z,924.00
2022-08-19T11:29:26.589Z,956.00
2022-08-19T11:30:26.577Z,972.00
2022-08-19T11:31:29.148Z,1024.00
2022-08-19T11:32:26.550Z,1080.00
2022-08-19T11:33:26.533Z,1152.00
2022-08-19T11:34:26.522Z,1152.00
2022-08-19T11:35:26.508Z,1208.00
2022-08-19T11:36:26.494Z,1196.00
2022-08-19T11:37:26.477Z,1176.00
2022-08-19T11:38:26.463Z,1188.00
2022-08-19T11:39:26.449Z,1124.00
2022-08-19T11:40:26.437Z,1096.00
2022-08-19T11:41:26.422Z,1068.00
2022-08-19T11:42:26.408Z,1184.00
2022-08-19T11:43:26.394Z,1196.00
2022-08-19T11:44:26.384Z,1096.00
2022-08-19T11:45:26.364Z,1172.00
2022-08-19T11:46:26.352Z,1144.00
2022-08-19T11:47:26.337Z,1136.00
2022-08-19T11:48:26.326Z,1112.00
2022-08-19T11:49:26.313Z,1100.00
2022-08-19T11:50:26.325Z,1060.00
2022-08-19T11:51:26.280Z,988.00
2022-08-19T11:52:26.268Z,1016.00
2022-08-19T11:53:26.250Z,1016.00
2022-08-19T11:54:26.241Z,1024.00
2022-08-19T11:55:26.224Z,1000.00
2022-08-19T11:56:26.213Z,960.00
2022-08-19T11:57:26.198Z,940.00
2022-08-19T11:58:26.186Z,972.00
2022-08-19T11:59:26.168Z,936.00
2022-08-19T12:00:26.193Z,912.00
2022-08-19T12:01:26.158Z,928.00
2022-08-19T12:02:26.187Z,944.00
2022-08-19T12:03:26.490Z,952.00
2022-08-19T12:04:26.124Z,908.00
2022-08-19T12:05:26.093Z,836.00
2022-08-19T12:06:26.083Z,824.00
2022-08-19T12:07:26.057Z,792.00
2022-08-19T12:08:26.056Z,840.00
2022-08-19T12:09:26.033Z,788.00
2022-08-19T12:10:26.615Z,812.00
2022-08-19T12:11:26.057Z,780.00
2022-08-19T12:12:26.034Z,820.00
2022-08-19T12:13:25.976Z,876.00
2022-08-19T12:14:25.972Z,852.00
2022-08-19T12:15:25.950Z,832.00
2022-08-19T12:16:25.964Z,888.00
2022-08-19T12:17:25.931Z,840.00
2022-08-19T12:18:25.913Z,868.00
2022-08-19T12:19:25.893Z,964.00
2022-08-19T12:20:25.884Z,984.00
2022-08-19T12:21:25.867Z,920.00
2022-08-19T12:22:25.845Z,924.00
2022-08-19T12:23:25.837Z,864.00
2022-08-19T12:24:25.819Z,920.00
2022-08-19T12:25:25.809Z,908.00
2022-08-19T12:26:25.791Z,1048.00
2022-08-19T12:27:39.941Z,904.00
2022-08-19T12:28:25.764Z,824.00
2022-08-19T12:29:25.754Z,788.00
2022-08-19T12:30:25.745Z,696.00
2022-08-19T12:31:25.724Z,652.00
2022-08-19T12:32:25.720Z,716.00
2022-08-19T12:33:25.697Z,684.00
2022-08-19T12:34:25.680Z,648.00
2022-08-19T12:35:25.672Z,624.00
2022-08-19T12:36:25.664Z,632.00
2022-08-19T12:37:25.643Z,736.00
2022-08-19T12:38:25.627Z,684.00
2022-08-19T12:39:25.614Z,616.00
2022-08-19T12:40:26.376Z,712.00
2022-08-19T12:41:25.597Z,872.00
2022-08-19T12:42:25.570Z,4560.00
2022-08-19T12:43:25.595Z,1528.00
2022-08-19T12:44:29.226Z,5952.00
2022-08-19T12:45:25.531Z,16000.00